sensor_id;sensor_type;location;lat;lon;timestamp;P1;durP1;ratioP1;P2;durP2;ratioP2
28724;SDS011;43472;48.980;9.646;2022-07-29T00:01:57;8.57;;;5.85;;
28724;SDS011;43472;48.980;9.646;2022-07-29T00:06:59;5.57;;;5.00;;
28724;SDS011;43472;48.980;9.646;2022-07-29T00:12:01;7.70;;;4.95;;
28724;SDS011;43472;48.980;9.646;2022-07-29T00:17:03;10.25;;;4.55;;
28724;SDS011;43472;48.980;9.646;2022-07-29T00:22:05;6.95;;;4.63;;
28724;SDS011;43472;48.980;9.646;2022-07-29T00:27:06;11.65;;;4.80;;
28724;SDS011;43472;48.980;9.646;2022-07-29T00:32:08;10.85;;;5.70;;
28724;SDS011;43472;48.980;9.646;2022-07-29T00:37:10;7.13;;;4.88;;
28724;SDS011;43472;48.980;9.646;2022-07-29T00:42:12;10.68;;;5.82;;
28724;SDS011;43472;48.980;9.646;2022-07-29T00:47:14;12.55;;;7.18;;
28724;SDS011;43472;48.980;9.646;2022-07-29T00:52:15;11.70;;;6.68;;
28724;SDS011;43472;48.980;9.646;2022-07-29T00:57:17;7.93;;;5.05;;
28724;SDS011;43472;48.980;9.646;2022-07-29T01:02:19;7.50;;;5.43;;
28724;SDS011;43472;48.980;9.646;2022-07-29T01:07:21;9.68;;;5.28;;
28724;SDS011;43472;48.980;9.646;2022-07-29T01:12:23;8.88;;;5.47;;
28724;SDS011;43472;48.980;9.646;2022-07-29T01:17:32;6.88;;;5.38;;
28724;SDS011;43472;48.980;9.646;2022-07-29T01:33:41;6.38;;;4.75;;
28724;SDS011;43472;48.980;9.646;2022-07-29T01:39:04;10.52;;;5.15;;
28724;SDS011;43472;48.980;9.646;2022-07-29T01:54:54;6.10;;;5.18;;
28724;SDS011;43472;48.980;9.646;2022-07-29T01:59:58;8.10;;;6.18;;
28724;SDS011;43472;48.980;9.646;2022-07-29T02:05:02;9.82;;;5.30;;
28724;SDS011;43472;48.980;9.646;2022-07-29T02:10:07;7.97;;;5.45;;
28724;SDS011;43472;48.980;9.646;2022-07-29T02:15:10;7.05;;;5.43;;
28724;SDS011;43472;48.980;9.646;2022-07-29T02:20:14;7.13;;;5.80;;
28724;SDS011;43472;48.980;9.646;2022-07-29T02:25:18;13.30;;;8.90;;
28724;SDS011;43472;48.980;9.646;2022-07-29T02:30:22;8.80;;;6.90;;
28724;SDS011;43472;48.980;9.646;2022-07-29T02:35:25;10.43;;;6.60;;
28724;SDS011;43472;48.980;9.646;2022-07-29T02:40:27;9.32;;;6.18;;
28724;SDS011;43472;48.980;9.646;2022-07-29T02:45:29;9.40;;;6.47;;
28724;SDS011;43472;48.980;9.646;2022-07-29T02:50:34;11.10;;;7.80;;
28724;SDS011;43472;48.980;9.646;2022-07-29T03:00:59;8.45;;;5.80;;
28724;SDS011;43472;48.980;9.646;2022-07-29T03:06:06;7.30;;;6.05;;
28724;SDS011;43472;48.980;9.646;2022-07-29T03:16:50;8.35;;;6.40;;
28724;SDS011;43472;48.980;9.646;2022-07-29T03:21:52;9.85;;;6.95;;
28724;SDS011;43472;48.980;9.646;2022-07-29T03:26:58;8.88;;;6.50;;
28724;SDS011;43472;48.980;9.646;2022-07-29T03:32:01;9.95;;;6.30;;
28724;SDS011;43472;48.980;9.646;2022-07-29T03:37:08;9.45;;;7.75;;
28724;SDS011;43472;48.980;9.646;2022-07-29T03:42:10;9.43;;;6.85;;
28724;SDS011;43472;48.980;9.646;2022-07-29T03:47:15;8.70;;;7.10;;
28724;SDS011;43472;48.980;9.646;2022-07-29T03:52:21;12.32;;;7.20;;
28724;SDS011;43472;48.980;9.646;2022-07-29T03:57:24;11.18;;;7.20;;
28724;SDS011;43472;48.980;9.646;2022-07-29T04:02:29;8.55;;;7.65;;
28724;SDS011;43472;48.980;9.646;2022-07-29T04:07:32;10.68;;;8.30;;
28724;SDS011;43472;48.980;9.646;2022-07-29T04:12:34;12.80;;;7.43;;
28724;SDS011;43472;48.980;9.646;2022-07-29T04:17:36;7.85;;;7.05;;
28724;SDS011;43472;48.980;9.646;2022-07-29T04:22:41;7.95;;;6.53;;
28724;SDS011;43472;48.980;9.646;2022-07-29T04:27:43;11.25;;;7.43;;
28724;SDS011;43472;48.980;9.646;2022-07-29T04:33:01;9.93;;;6.55;;
28724;SDS011;43472;48.980;9.646;2022-07-29T04:38:04;7.93;;;6.03;;
28724;SDS011;43472;48.980;9.646;2022-07-29T04:48:23;7.55;;;6.60;;
28724;SDS011;43472;48.980;9.646;2022-07-29T04:53:29;7.80;;;5.97;;
28724;SDS011;43472;48.980;9.646;2022-07-29T04:58:31;9.38;;;6.78;;
28724;SDS011;43472;48.980;9.646;2022-07-29T05:03:35;9.52;;;8.02;;
28724;SDS011;43472;48.980;9.646;2022-07-29T05:08:36;11.02;;;7.60;;
28724;SDS011;43472;48.980;9.646;2022-07-29T05:13:42;12.95;;;7.35;;
28724;SDS011;43472;48.980;9.646;2022-07-29T05:18:47;13.20;;;8.05;;
28724;SDS011;43472;48.980;9.646;2022-07-29T05:23:48;10.27;;;7.32;;
28724;SDS011;43472;48.980;9.646;2022-07-29T05:28:50;8.32;;;7.20;;
28724;SDS011;43472;48.980;9.646;2022-07-29T05:33:52;10.43;;;7.00;;
28724;SDS011;43472;48.980;9.646;2022-07-29T05:38:54;14.05;;;7.97;;
28724;SDS011;43472;48.980;9.646;2022-07-29T05:43:55;10.48;;;9.20;;
28724;SDS011;43472;48.980;9.646;2022-07-29T05:48:57;15.73;;;10.27;;
28724;SDS011;43472;48.980;9.646;2022-07-29T05:53:59;14.10;;;10.20;;
28724;SDS011;43472;48.980;9.646;2022-07-29T05:59:01;14.02;;;11.07;;
28724;SDS011;43472;48.980;9.646;2022-07-29T06:04:04;11.57;;;9.80;;
28724;SDS011;43472;48.980;9.646;2022-07-29T06:09:06;14.43;;;11.07;;
28724;SDS011;43472;48.980;9.646;2022-07-29T06:14:12;14.05;;;11.45;;
28724;SDS011;43472;48.980;9.646;2022-07-29T06:19:15;11.73;;;10.32;;
28724;SDS011;43472;48.980;9.646;2022-07-29T06:24:17;12.60;;;11.38;;
28724;SDS011;43472;48.980;9.646;2022-07-29T06:29:19;14.32;;;10.38;;
28724;SDS011;43472;48.980;9.646;2022-07-29T06:34:21;13.43;;;11.77;;
28724;SDS011;43472;48.980;9.646;2022-07-29T06:39:23;16.70;;;12.23;;
28724;SDS011;43472;48.980;9.646;2022-07-29T06:44:25;11.57;;;10.43;;
28724;SDS011;43472;48.980;9.646;2022-07-29T06:49:26;15.25;;;10.73;;
28724;SDS011;43472;48.980;9.646;2022-07-29T06:54:28;12.25;;;9.60;;
28724;SDS011;43472;48.980;9.646;2022-07-29T06:59:30;12.93;;;9.85;;
28724;SDS011;43472;48.980;9.646;2022-07-29T07:04:36;10.80;;;9.68;;
28724;SDS011;43472;48.980;9.646;2022-07-29T07:09:37;13.00;;;9.13;;
28724;SDS011;43472;48.980;9.646;2022-07-29T07:14:41;10.02;;;8.35;;
28724;SDS011;43472;48.980;9.646;2022-07-29T07:19:42;9.65;;;6.82;;
28724;SDS011;43472;48.980;9.646;2022-07-29T07:24:44;7.75;;;5.47;;
28724;SDS011;43472;48.980;9.646;2022-07-29T07:29:46;8.18;;;5.40;;
28724;SDS011;43472;48.980;9.646;2022-07-29T07:34:48;4.05;;;3.63;;
28724;SDS011;43472;48.980;9.646;2022-07-29T07:39:50;4.30;;;3.90;;
28724;SDS011;43472;48.980;9.646;2022-07-29T07:44:55;8.80;;;4.32;;
28724;SDS011;43472;48.980;9.646;2022-07-29T07:50:13;6.50;;;3.22;;
28724;SDS011;43472;48.980;9.646;2022-07-29T07:55:19;7.70;;;3.50;;
28724;SDS011;43472;48.980;9.646;2022-07-29T08:00:21;3.88;;;2.53;;
28724;SDS011;43472;48.980;9.646;2022-07-29T08:05:24;4.05;;;2.72;;
28724;SDS011;43472;48.980;9.646;2022-07-29T08:10:25;4.90;;;3.20;;
28724;SDS011;43472;48.980;9.646;2022-07-29T08:15:46;6.82;;;2.88;;
28724;SDS011;43472;48.980;9.646;2022-07-29T08:20:48;4.38;;;3.17;;
28724;SDS011;43472;48.980;9.646;2022-07-29T08:25:50;4.25;;;2.90;;
28724;SDS011;43472;48.980;9.646;2022-07-29T08:30:52;4.53;;;2.95;;
28724;SDS011;43472;48.980;9.646;2022-07-29T08:35:53;5.43;;;2.90;;
28724;SDS011;43472;48.980;9.646;2022-07-29T08:40:55;4.45;;;2.88;;
28724;SDS011;43472;48.980;9.646;2022-07-29T08:45:57;4.75;;;2.90;;
28724;SDS011;43472;48.980;9.646;2022-07-29T08:50:59;4.00;;;3.13;;
28724;SDS011;43472;48.980;9.646;2022-07-29T08:56:04;3.10;;;2.50;;
28724;SDS011;43472;48.980;9.646;2022-07-29T09:01:07;3.80;;;2.50;;
28724;SDS011;43472;48.980;9.646;2022-07-29T09:06:13;4.40;;;3.13;;
28724;SDS011;43472;48.980;9.646;2022-07-29T09:11:18;4.20;;;2.97;;
28724;SDS011;43472;48.980;9.646;2022-07-29T09:16:20;3.33;;;2.72;;
28724;SDS011;43472;48.980;9.646;2022-07-29T09:21:41;4.82;;;2.80;;
28724;SDS011;43472;48.980;9.646;2022-07-29T09:26:58;4.38;;;3.08;;
28724;SDS011;43472;48.980;9.646;2022-07-29T09:32:00;5.07;;;2.78;;
28724;SDS011;43472;48.980;9.646;2022-07-29T09:37:07;3.22;;;2.80;;
28724;SDS011;43472;48.980;9.646;2022-07-29T09:42:09;3.30;;;2.95;;
28724;SDS011;43472;48.980;9.646;2022-07-29T09:47:11;6.70;;;2.88;;
28724;SDS011;43472;48.980;9.646;2022-07-29T09:52:14;3.28;;;2.90;;
28724;SDS011;43472;48.980;9.646;2022-07-29T09:57:26;5.00;;;2.95;;
28724;SDS011;43472;48.980;9.646;2022-07-29T10:02:32;7.25;;;3.78;;
28724;SDS011;43472;48.980;9.646;2022-07-29T10:13:01;4.70;;;3.40;;
28724;SDS011;43472;48.980;9.646;2022-07-29T10:18:12;5.03;;;3.10;;
28724;SDS011;43472;48.980;9.646;2022-07-29T10:23:15;5.85;;;3.22;;
28724;SDS011;43472;48.980;9.646;2022-07-29T10:28:17;5.65;;;3.58;;
28724;SDS011;43472;48.980;9.646;2022-07-29T10:44:41;10.60;;;3.42;;
28724;SDS011;43472;48.980;9.646;2022-07-29T10:49:54;6.05;;;3.40;;
28724;SDS011;43472;48.980;9.646;2022-07-29T10:55:01;8.35;;;3.70;;
28724;SDS011;43472;48.980;9.646;2022-07-29T11:15:21;7.57;;;3.85;;
28724;SDS011;43472;48.980;9.646;2022-07-29T11:26:12;8.70;;;4.00;;
28724;SDS011;43472;48.980;9.646;2022-07-29T11:31:38;14.88;;;5.10;;
28724;SDS011;43472;48.980;9.646;2022-07-29T11:47:34;6.55;;;3.55;;
28724;SDS011;43472;48.980;9.646;2022-07-29T11:52:57;9.32;;;4.38;;
28724;SDS011;43472;48.980;9.646;2022-07-29T11:58:01;6.28;;;4.40;;
28724;SDS011;43472;48.980;9.646;2022-07-29T12:03:08;14.98;;;4.57;;
28724;SDS011;43472;48.980;9.646;2022-07-29T12:08:12;16.08;;;5.40;;
28724;SDS011;43472;48.980;9.646;2022-07-29T12:13:23;7.20;;;4.80;;
28724;SDS011;43472;48.980;9.646;2022-07-29T12:18:38;10.90;;;5.00;;
28724;SDS011;43472;48.980;9.646;2022-07-29T12:23:39;11.88;;;4.65;;
28724;SDS011;43472;48.980;9.646;2022-07-29T12:29:06;10.30;;;4.68;;
28724;SDS011;43472;48.980;9.646;2022-07-29T12:34:15;8.38;;;4.35;;
28724;SDS011;43472;48.980;9.646;2022-07-29T12:39:17;7.20;;;4.00;;
28724;SDS011;43472;48.980;9.646;2022-07-29T12:44:20;9.88;;;4.72;;
28724;SDS011;43472;48.980;9.646;2022-07-29T12:49:22;11.18;;;4.40;;
28724;SDS011;43472;48.980;9.646;2022-07-29T12:54:24;7.28;;;4.05;;
28724;SDS011;43472;48.980;9.646;2022-07-29T12:59:26;6.57;;;4.00;;
28724;SDS011;43472;48.980;9.646;2022-07-29T13:04:31;8.85;;;3.53;;
28724;SDS011;43472;48.980;9.646;2022-07-29T13:09:38;6.85;;;3.63;;
28724;SDS011;43472;48.980;9.646;2022-07-29T13:14:46;4.75;;;3.25;;
28724;SDS011;43472;48.980;9.646;2022-07-29T13:19:52;8.93;;;4.05;;
28724;SDS011;43472;48.980;9.646;2022-07-29T13:25:09;10.45;;;4.97;;
28724;SDS011;43472;48.980;9.646;2022-07-29T13:30:11;6.13;;;3.20;;
28724;SDS011;43472;48.980;9.646;2022-07-29T13:35:13;3.90;;;3.15;;
28724;SDS011;43472;48.980;9.646;2022-07-29T13:40:15;5.25;;;2.90;;
28724;SDS011;43472;48.980;9.646;2022-07-29T13:45:17;4.05;;;2.67;;
28724;SDS011;43472;48.980;9.646;2022-07-29T13:50:20;2.95;;;2.20;;
28724;SDS011;43472;48.980;9.646;2022-07-29T13:55:21;2.25;;;2.05;;
28724;SDS011;43472;48.980;9.646;2022-07-29T14:00:23;5.07;;;2.30;;
28724;SDS011;43472;48.980;9.646;2022-07-29T14:05:25;3.03;;;2.10;;
28724;SDS011;43472;48.980;9.646;2022-07-29T14:10:27;4.45;;;2.40;;
28724;SDS011;43472;48.980;9.646;2022-07-29T14:15:29;3.30;;;2.42;;
28724;SDS011;43472;48.980;9.646;2022-07-29T14:20:30;3.47;;;2.30;;
28724;SDS011;43472;48.980;9.646;2022-07-29T14:25:32;4.00;;;2.40;;
28724;SDS011;43472;48.980;9.646;2022-07-29T14:30:34;4.88;;;2.40;;
28724;SDS011;43472;48.980;9.646;2022-07-29T14:35:36;4.75;;;2.13;;
28724;SDS011;43472;48.980;9.646;2022-07-29T14:40:38;3.35;;;2.38;;
28724;SDS011;43472;48.980;9.646;2022-07-29T14:45:39;6.57;;;2.30;;
28724;SDS011;43472;48.980;9.646;2022-07-29T14:50:41;5.88;;;3.10;;
28724;SDS011;43472;48.980;9.646;2022-07-29T14:55:43;4.53;;;2.70;;
28724;SDS011;43472;48.980;9.646;2022-07-29T15:00:45;6.75;;;3.10;;
28724;SDS011;43472;48.980;9.646;2022-07-29T15:05:47;7.47;;;3.08;;
28724;SDS011;43472;48.980;9.646;2022-07-29T15:10:49;6.25;;;2.88;;
28724;SDS011;43472;48.980;9.646;2022-07-29T15:15:51;6.15;;;3.38;;
28724;SDS011;43472;48.980;9.646;2022-07-29T15:20:59;6.15;;;3.10;;
28724;SDS011;43472;48.980;9.646;2022-07-29T15:26:03;8.57;;;3.20;;
28724;SDS011;43472;48.980;9.646;2022-07-29T15:31:05;5.82;;;3.20;;
28724;SDS011;43472;48.980;9.646;2022-07-29T15:36:07;4.05;;;3.50;;
28724;SDS011;43472;48.980;9.646;2022-07-29T15:41:09;9.07;;;3.33;;
28724;SDS011;43472;48.980;9.646;2022-07-29T15:46:15;8.48;;;3.50;;
28724;SDS011;43472;48.980;9.646;2022-07-29T15:51:37;6.60;;;3.72;;
28724;SDS011;43472;48.980;9.646;2022-07-29T15:56:39;7.70;;;3.90;;
28724;SDS011;43472;48.980;9.646;2022-07-29T16:01:40;5.13;;;3.17;;
28724;SDS011;43472;48.980;9.646;2022-07-29T16:06:43;7.85;;;3.15;;
28724;SDS011;43472;48.980;9.646;2022-07-29T16:11:48;7.35;;;3.42;;
28724;SDS011;43472;48.980;9.646;2022-07-29T16:16:51;6.55;;;3.17;;
28724;SDS011;43472;48.980;9.646;2022-07-29T16:21:52;7.22;;;3.28;;
28724;SDS011;43472;48.980;9.646;2022-07-29T16:26:59;6.90;;;3.63;;
28724;SDS011;43472;48.980;9.646;2022-07-29T16:32:02;5.20;;;3.22;;
28724;SDS011;43472;48.980;9.646;2022-07-29T16:37:05;4.88;;;3.20;;
28724;SDS011;43472;48.980;9.646;2022-07-29T16:42:07;10.38;;;3.53;;
28724;SDS011;43472;48.980;9.646;2022-07-29T16:47:10;7.97;;;3.42;;
28724;SDS011;43472;48.980;9.646;2022-07-29T16:52:12;7.00;;;3.63;;
28724;SDS011;43472;48.980;9.646;2022-07-29T16:57:14;6.63;;;3.35;;
28724;SDS011;43472;48.980;9.646;2022-07-29T17:02:16;5.45;;;3.63;;
28724;SDS011;43472;48.980;9.646;2022-07-29T17:07:18;5.50;;;3.65;;
28724;SDS011;43472;48.980;9.646;2022-07-29T17:12:20;4.93;;;3.53;;
28724;SDS011;43472;48.980;9.646;2022-07-29T17:17:21;15.15;;;4.32;;
28724;SDS011;43472;48.980;9.646;2022-07-29T17:27:45;6.80;;;3.53;;
28724;SDS011;43472;48.980;9.646;2022-07-29T17:32:47;5.32;;;3.60;;
28724;SDS011;43472;48.980;9.646;2022-07-29T17:37:48;7.78;;;3.50;;
28724;SDS011;43472;48.980;9.646;2022-07-29T17:42:50;4.43;;;3.42;;
28724;SDS011;43472;48.980;9.646;2022-07-29T17:47:52;6.07;;;3.20;;
28724;SDS011;43472;48.980;9.646;2022-07-29T17:52:54;7.68;;;3.25;;
28724;SDS011;43472;48.980;9.646;2022-07-29T17:57:55;6.57;;;3.40;;
28724;SDS011;43472;48.980;9.646;2022-07-29T18:03:00;5.50;;;3.45;;
28724;SDS011;43472;48.980;9.646;2022-07-29T18:08:02;5.75;;;3.05;;
28724;SDS011;43472;48.980;9.646;2022-07-29T18:13:04;5.03;;;3.20;;
28724;SDS011;43472;48.980;9.646;2022-07-29T18:18:05;8.00;;;3.70;;
28724;SDS011;43472;48.980;9.646;2022-07-29T18:23:07;6.18;;;3.60;;
28724;SDS011;43472;48.980;9.646;2022-07-29T18:28:10;4.72;;;3.15;;
28724;SDS011;43472;48.980;9.646;2022-07-29T18:33:12;4.53;;;2.80;;
28724;SDS011;43472;48.980;9.646;2022-07-29T18:38:22;8.63;;;3.50;;
28724;SDS011;43472;48.980;9.646;2022-07-29T18:43:24;4.43;;;3.58;;
28724;SDS011;43472;48.980;9.646;2022-07-29T18:48:25;8.23;;;3.80;;
28724;SDS011;43472;48.980;9.646;2022-07-29T18:53:27;6.28;;;3.95;;
28724;SDS011;43472;48.980;9.646;2022-07-29T18:58:29;6.75;;;3.40;;
28724;SDS011;43472;48.980;9.646;2022-07-29T19:03:33;7.32;;;3.72;;
28724;SDS011;43472;48.980;9.646;2022-07-29T19:08:35;9.70;;;4.00;;
28724;SDS011;43472;48.980;9.646;2022-07-29T19:13:36;6.85;;;3.42;;
28724;SDS011;43472;48.980;9.646;2022-07-29T19:18:39;4.88;;;3.85;;
28724;SDS011;43472;48.980;9.646;2022-07-29T19:23:41;7.63;;;3.65;;
28724;SDS011;43472;48.980;9.646;2022-07-29T19:29:03;12.35;;;4.50;;
28724;SDS011;43472;48.980;9.646;2022-07-29T19:34:05;4.88;;;4.13;;
28724;SDS011;43472;48.980;9.646;2022-07-29T19:39:07;4.93;;;3.88;;
28724;SDS011;43472;48.980;9.646;2022-07-29T19:44:09;8.05;;;4.85;;
28724;SDS011;43472;48.980;9.646;2022-07-29T19:49:11;7.80;;;3.90;;
28724;SDS011;43472;48.980;9.646;2022-07-29T19:54:13;10.77;;;5.90;;
28724;SDS011;43472;48.980;9.646;2022-07-29T19:59:18;8.63;;;4.97;;
28724;SDS011;43472;48.980;9.646;2022-07-29T20:04:24;10.45;;;5.85;;
28724;SDS011;43472;48.980;9.646;2022-07-29T20:09:26;17.05;;;6.05;;
28724;SDS011;43472;48.980;9.646;2022-07-29T20:14:28;10.00;;;3.78;;
28724;SDS011;43472;48.980;9.646;2022-07-29T20:19:30;12.77;;;3.33;;
28724;SDS011;43472;48.980;9.646;2022-07-29T20:24:33;4.25;;;3.40;;
28724;SDS011;43472;48.980;9.646;2022-07-29T20:29:35;4.38;;;3.30;;
28724;SDS011;43472;48.980;9.646;2022-07-29T20:34:37;5.75;;;3.50;;
28724;SDS011;43472;48.980;9.646;2022-07-29T20:39:41;4.72;;;3.42;;
28724;SDS011;43472;48.980;9.646;2022-07-29T20:44:43;3.55;;;3.25;;
28724;SDS011;43472;48.980;9.646;2022-07-29T20:49:44;7.70;;;3.90;;
28724;SDS011;43472;48.980;9.646;2022-07-29T20:54:46;4.95;;;3.28;;
28724;SDS011;43472;48.980;9.646;2022-07-29T20:59:48;5.97;;;3.80;;
28724;SDS011;43472;48.980;9.646;2022-07-29T21:04:51;4.22;;;3.30;;
28724;SDS011;43472;48.980;9.646;2022-07-29T21:09:53;8.60;;;3.22;;
28724;SDS011;43472;48.980;9.646;2022-07-29T21:14:55;8.15;;;3.15;;
28724;SDS011;43472;48.980;9.646;2022-07-29T21:19:57;4.63;;;3.20;;
28724;SDS011;43472;48.980;9.646;2022-07-29T21:24:59;7.93;;;3.33;;
28724;SDS011;43472;48.980;9.646;2022-07-29T21:30:02;10.02;;;7.63;;
28724;SDS011;43472;48.980;9.646;2022-07-29T21:35:04;6.20;;;4.55;;
28724;SDS011;43472;48.980;9.646;2022-07-29T21:45:28;8.50;;;3.65;;
28724;SDS011;43472;48.980;9.646;2022-07-29T21:50:30;6.95;;;3.70;;
28724;SDS011;43472;48.980;9.646;2022-07-29T21:55:32;7.80;;;4.07;;
28724;SDS011;43472;48.980;9.646;2022-07-29T22:00:34;4.40;;;3.72;;
28724;SDS011;43472;48.980;9.646;2022-07-29T22:05:35;7.45;;;3.40;;
28724;SDS011;43472;48.980;9.646;2022-07-29T22:10:37;6.07;;;3.50;;
28724;SDS011;43472;48.980;9.646;2022-07-29T22:15:39;6.18;;;3.60;;
28724;SDS011;43472;48.980;9.646;2022-07-29T22:20:47;7.85;;;6.55;;
28724;SDS011;43472;48.980;9.646;2022-07-29T22:25:50;7.32;;;4.82;;
28724;SDS011;43472;48.980;9.646;2022-07-29T22:30:52;6.53;;;3.72;;
28724;SDS011;43472;48.980;9.646;2022-07-29T22:35:53;6.78;;;4.82;;
28724;SDS011;43472;48.980;9.646;2022-07-29T22:40:55;8.05;;;4.97;;
28724;SDS011;43472;48.980;9.646;2022-07-29T22:46:01;7.50;;;5.10;;
28724;SDS011;43472;48.980;9.646;2022-07-29T22:51:03;5.63;;;4.60;;
28724;SDS011;43472;48.980;9.646;2022-07-29T22:56:05;6.28;;;4.65;;
28724;SDS011;43472;48.980;9.646;2022-07-29T23:01:07;8.00;;;4.65;;
28724;SDS011;43472;48.980;9.646;2022-07-29T23:06:09;5.85;;;3.67;;
28724;SDS011;43472;48.980;9.646;2022-07-29T23:11:11;4.95;;;3.83;;
28724;SDS011;43472;48.980;9.646;2022-07-29T23:16:12;11.30;;;6.90;;
28724;SDS011;43472;48.980;9.646;2022-07-29T23:21:26;10.20;;;7.38;;
28724;SDS011;43472;48.980;9.646;2022-07-29T23:26:28;8.25;;;4.75;;
28724;SDS011;43472;48.980;9.646;2022-07-29T23:31:31;7.55;;;5.25;;
28724;SDS011;43472;48.980;9.646;2022-07-29T23:36:42;5.60;;;4.30;;
28724;SDS011;43472;48.980;9.646;2022-07-29T23:41:43;7.18;;;5.38;;
28724;SDS011;43472;48.980;9.646;2022-07-29T23:46:45;6.80;;;4.95;;
28724;SDS011;43472;48.980;9.646;2022-07-29T23:51:47;8.30;;;6.13;;
28724;SDS011;43472;48.980;9.646;2022-07-29T23:56:48;6.78;;;5.30;;
